Berclair, Texas
Current Conditions -  °F | °C
As of 6:35 PM on Monday 24 Nov 2014 (Local Time) from KBEA Reporting Station
Clear Clear  
Wind Chill: 58°   Ceiling: Unl
Heat Index: 58°   Visibility: 10mi
Dew Point: 35°   Wind: 3mph
Humidity: 43%   Direction: 10°N
Pressure: 30.07"   Gusts: NA
Location:  28.53°N, 97.59°W
Report Text: KBEA 250035Z AUTO 01003KT 10SM CLR 14/02 A3007 RMK AO2 T01420018
Loading
Personal Weather Stations






























Interactive Weather Map New forecast layout! Learn more

10-Day Weather Forecast

Advertisements
Track Severe Weather on mobile